sensor_id;sensor_type;location;lat;lon;timestamp;P1;durP1;ratioP1;P2;durP2;ratioP2
64498;SDS011;51087;55.718;21.122;2022-10-16T00:01:17;63.92;;;29.98;;
64498;SDS011;51087;55.718;21.122;2022-10-16T00:03:44;54.78;;;30.48;;
64498;SDS011;51087;55.718;21.122;2022-10-16T00:06:11;59.30;;;30.58;;
64498;SDS011;51087;55.718;21.122;2022-10-16T00:08:37;60.83;;;31.45;;
64498;SDS011;51087;55.718;21.122;2022-10-16T00:11:08;59.95;;;31.35;;
64498;SDS011;51087;55.718;21.122;2022-10-16T00:13:36;58.78;;;30.58;;
64498;SDS011;51087;55.718;21.122;2022-10-16T00:16:03;64.22;;;30.15;;
64498;SDS011;51087;55.718;21.122;2022-10-16T00:18:29;59.90;;;29.35;;
64498;SDS011;51087;55.718;21.122;2022-10-16T00:20:54;56.97;;;28.92;;
64498;SDS011;51087;55.718;21.122;2022-10-16T00:23:21;61.45;;;28.90;;
64498;SDS011;51087;55.718;21.122;2022-10-16T00:25:56;54.92;;;28.77;;
64498;SDS011;51087;55.718;21.122;2022-10-16T00:28:22;59.30;;;30.02;;
64498;SDS011;51087;55.718;21.122;2022-10-16T00:30:48;61.30;;;29.92;;
64498;SDS011;51087;55.718;21.122;2022-10-16T00:33:13;58.72;;;28.65;;
64498;SDS011;51087;55.718;21.122;2022-10-16T00:35:39;61.20;;;27.60;;
64498;SDS011;51087;55.718;21.122;2022-10-16T00:38:04;62.33;;;29.60;;
64498;SDS011;51087;55.718;21.122;2022-10-16T00:40:29;51.90;;;28.25;;
64498;SDS011;51087;55.718;21.122;2022-10-16T00:42:56;57.75;;;28.65;;
64498;SDS011;51087;55.718;21.122;2022-10-16T00:45:22;55.92;;;28.67;;
64498;SDS011;51087;55.718;21.122;2022-10-16T00:47:48;57.63;;;28.00;;
64498;SDS011;51087;55.718;21.122;2022-10-16T00:50:30;66.53;;;28.85;;
64498;SDS011;51087;55.718;21.122;2022-10-16T00:52:57;60.60;;;29.65;;
64498;SDS011;51087;55.718;21.122;2022-10-16T00:55:25;58.45;;;29.45;;
64498;SDS011;51087;55.718;21.122;2022-10-16T00:57:51;58.78;;;28.75;;
64498;SDS011;51087;55.718;21.122;2022-10-16T01:00:21;58.50;;;29.08;;
64498;SDS011;51087;55.718;21.122;2022-10-16T01:05:51;54.72;;;28.13;;
64498;SDS011;51087;55.718;21.122;2022-10-16T01:08:34;57.70;;;27.98;;
64498;SDS011;51087;55.718;21.122;2022-10-16T01:11:13;54.78;;;28.60;;
64498;SDS011;51087;55.718;21.122;2022-10-16T01:13:48;55.15;;;30.70;;
64498;SDS011;51087;55.718;21.122;2022-10-16T01:16:24;55.45;;;30.15;;
64498;SDS011;51087;55.718;21.122;2022-10-16T01:21:57;54.20;;;28.95;;
64498;SDS011;51087;55.718;21.122;2022-10-16T01:29:48;56.90;;;30.20;;
64498;SDS011;51087;55.718;21.122;2022-10-16T01:34:48;59.88;;;30.10;;
64498;SDS011;51087;55.718;21.122;2022-10-16T01:37:25;59.10;;;31.10;;
64498;SDS011;51087;55.718;21.122;2022-10-16T01:40:13;59.97;;;29.98;;
64498;SDS011;51087;55.718;21.122;2022-10-16T01:42:42;61.55;;;29.45;;
64498;SDS011;51087;55.718;21.122;2022-10-16T01:45:12;54.97;;;29.77;;
64498;SDS011;51087;55.718;21.122;2022-10-16T01:47:40;53.95;;;29.33;;
64498;SDS011;51087;55.718;21.122;2022-10-16T01:50:08;55.00;;;29.63;;
64498;SDS011;51087;55.718;21.122;2022-10-16T01:52:35;63.85;;;31.27;;
64498;SDS011;51087;55.718;21.122;2022-10-16T01:55:04;58.35;;;30.33;;
64498;SDS011;51087;55.718;21.122;2022-10-16T01:57:32;58.53;;;30.88;;
64498;SDS011;51087;55.718;21.122;2022-10-16T02:00:02;61.38;;;31.63;;
64498;SDS011;51087;55.718;21.122;2022-10-16T02:02:32;60.35;;;31.17;;
64498;SDS011;51087;55.718;21.122;2022-10-16T02:04:59;62.85;;;31.58;;
64498;SDS011;51087;55.718;21.122;2022-10-16T02:07:29;61.88;;;31.77;;
64498;SDS011;51087;55.718;21.122;2022-10-16T02:09:55;58.97;;;30.00;;
64498;SDS011;51087;55.718;21.122;2022-10-16T02:12:26;67.88;;;30.63;;
64498;SDS011;51087;55.718;21.122;2022-10-16T02:14:55;65.53;;;31.10;;
64498;SDS011;51087;55.718;21.122;2022-10-16T02:17:21;59.90;;;30.35;;
64498;SDS011;51087;55.718;21.122;2022-10-16T02:19:48;60.38;;;30.75;;
64498;SDS011;51087;55.718;21.122;2022-10-16T02:22:21;62.05;;;31.67;;
64498;SDS011;51087;55.718;21.122;2022-10-16T02:25:17;66.07;;;32.33;;
64498;SDS011;51087;55.718;21.122;2022-10-16T02:27:54;60.00;;;29.80;;
64498;SDS011;51087;55.718;21.122;2022-10-16T02:32:50;51.15;;;26.05;;
64498;SDS011;51087;55.718;21.122;2022-10-16T02:35:17;64.85;;;30.60;;
64498;SDS011;51087;55.718;21.122;2022-10-16T02:37:45;62.53;;;30.65;;
64498;SDS011;51087;55.718;21.122;2022-10-16T02:40:12;63.42;;;30.80;;
64498;SDS011;51087;55.718;21.122;2022-10-16T02:42:38;58.90;;;29.95;;
64498;SDS011;51087;55.718;21.122;2022-10-16T02:45:05;69.75;;;31.38;;
64498;SDS011;51087;55.718;21.122;2022-10-16T02:47:32;64.07;;;29.67;;
64498;SDS011;51087;55.718;21.122;2022-10-16T02:49:58;57.53;;;30.40;;
64498;SDS011;51087;55.718;21.122;2022-10-16T02:52:24;55.53;;;30.17;;
64498;SDS011;51087;55.718;21.122;2022-10-16T02:54:50;62.60;;;31.70;;
64498;SDS011;51087;55.718;21.122;2022-10-16T02:57:15;59.63;;;30.15;;
64498;SDS011;51087;55.718;21.122;2022-10-16T02:59:40;59.67;;;30.60;;
64498;SDS011;51087;55.718;21.122;2022-10-16T03:02:06;60.70;;;29.65;;
64498;SDS011;51087;55.718;21.122;2022-10-16T03:04:31;53.13;;;29.95;;
64498;SDS011;51087;55.718;21.122;2022-10-16T03:06:57;52.35;;;29.00;;
64498;SDS011;51087;55.718;21.122;2022-10-16T03:09:22;53.67;;;29.75;;
64498;SDS011;51087;55.718;21.122;2022-10-16T03:11:48;53.08;;;29.50;;
64498;SDS011;51087;55.718;21.122;2022-10-16T03:14:13;59.38;;;29.52;;
64498;SDS011;51087;55.718;21.122;2022-10-16T03:16:39;57.08;;;30.77;;
64498;SDS011;51087;55.718;21.122;2022-10-16T03:19:04;57.15;;;29.95;;
64498;SDS011;51087;55.718;21.122;2022-10-16T03:21:30;53.08;;;30.33;;
64498;SDS011;51087;55.718;21.122;2022-10-16T03:23:55;56.90;;;31.08;;
64498;SDS011;51087;55.718;21.122;2022-10-16T03:26:20;59.22;;;31.20;;
64498;SDS011;51087;55.718;21.122;2022-10-16T03:28:46;59.88;;;31.08;;
64498;SDS011;51087;55.718;21.122;2022-10-16T03:31:11;58.70;;;31.05;;
64498;SDS011;51087;55.718;21.122;2022-10-16T03:33:37;59.75;;;32.85;;
64498;SDS011;51087;55.718;21.122;2022-10-16T03:36:02;57.30;;;30.90;;
64498;SDS011;51087;55.718;21.122;2022-10-16T03:38:28;55.80;;;31.90;;
64498;SDS011;51087;55.718;21.122;2022-10-16T03:40:53;56.90;;;31.05;;
64498;SDS011;51087;55.718;21.122;2022-10-16T03:43:19;58.30;;;31.20;;
64498;SDS011;51087;55.718;21.122;2022-10-16T03:45:44;56.85;;;30.27;;
64498;SDS011;51087;55.718;21.122;2022-10-16T03:48:10;60.75;;;31.83;;
64498;SDS011;51087;55.718;21.122;2022-10-16T03:50:35;63.95;;;32.28;;
64498;SDS011;51087;55.718;21.122;2022-10-16T03:53:01;61.03;;;31.33;;
64498;SDS011;51087;55.718;21.122;2022-10-16T03:55:26;56.20;;;30.88;;
64498;SDS011;51087;55.718;21.122;2022-10-16T03:57:52;62.40;;;32.63;;
64498;SDS011;51087;55.718;21.122;2022-10-16T04:00:17;61.88;;;32.15;;
64498;SDS011;51087;55.718;21.122;2022-10-16T04:02:42;67.13;;;33.03;;
64498;SDS011;51087;55.718;21.122;2022-10-16T04:05:08;55.90;;;31.40;;
64498;SDS011;51087;55.718;21.122;2022-10-16T04:07:34;62.42;;;32.30;;
64498;SDS011;51087;55.718;21.122;2022-10-16T04:09:59;63.65;;;33.10;;
64498;SDS011;51087;55.718;21.122;2022-10-16T04:12:25;64.95;;;32.33;;
64498;SDS011;51087;55.718;21.122;2022-10-16T04:14:51;65.47;;;32.33;;
64498;SDS011;51087;55.718;21.122;2022-10-16T04:17:17;61.50;;;32.65;;
64498;SDS011;51087;55.718;21.122;2022-10-16T04:19:42;69.63;;;32.53;;
64498;SDS011;51087;55.718;21.122;2022-10-16T04:22:08;64.80;;;32.67;;
64498;SDS011;51087;55.718;21.122;2022-10-16T04:24:33;58.65;;;31.67;;
64498;SDS011;51087;55.718;21.122;2022-10-16T04:26:59;59.47;;;31.33;;
64498;SDS011;51087;55.718;21.122;2022-10-16T04:29:24;61.88;;;32.60;;
64498;SDS011;51087;55.718;21.122;2022-10-16T04:31:49;53.55;;;31.50;;
64498;SDS011;51087;55.718;21.122;2022-10-16T04:34:15;54.75;;;31.30;;
64498;SDS011;51087;55.718;21.122;2022-10-16T04:36:40;57.53;;;32.47;;
64498;SDS011;51087;55.718;21.122;2022-10-16T04:39:06;59.47;;;32.95;;
64498;SDS011;51087;55.718;21.122;2022-10-16T04:41:31;66.07;;;31.42;;
64498;SDS011;51087;55.718;21.122;2022-10-16T04:43:57;56.80;;;31.48;;
64498;SDS011;51087;55.718;21.122;2022-10-16T04:46:22;57.97;;;31.52;;
64498;SDS011;51087;55.718;21.122;2022-10-16T04:48:48;64.50;;;31.45;;
64498;SDS011;51087;55.718;21.122;2022-10-16T04:51:13;60.97;;;31.30;;
64498;SDS011;51087;55.718;21.122;2022-10-16T04:53:39;59.65;;;30.83;;
64498;SDS011;51087;55.718;21.122;2022-10-16T04:56:04;59.00;;;29.38;;
64498;SDS011;51087;55.718;21.122;2022-10-16T04:58:30;61.30;;;30.75;;
64498;SDS011;51087;55.718;21.122;2022-10-16T05:00:55;60.08;;;31.02;;
64498;SDS011;51087;55.718;21.122;2022-10-16T05:03:21;63.10;;;31.35;;
64498;SDS011;51087;55.718;21.122;2022-10-16T05:05:46;56.78;;;30.38;;
64498;SDS011;51087;55.718;21.122;2022-10-16T05:08:15;53.75;;;30.40;;
64498;SDS011;51087;55.718;21.122;2022-10-16T05:10:42;55.75;;;31.35;;
64498;SDS011;51087;55.718;21.122;2022-10-16T05:13:08;58.13;;;31.73;;
64498;SDS011;51087;55.718;21.122;2022-10-16T05:15:34;58.33;;;30.80;;
64498;SDS011;51087;55.718;21.122;2022-10-16T05:17:59;55.42;;;30.38;;
64498;SDS011;51087;55.718;21.122;2022-10-16T05:20:24;57.05;;;30.67;;
64498;SDS011;51087;55.718;21.122;2022-10-16T05:22:50;61.88;;;32.30;;
64498;SDS011;51087;55.718;21.122;2022-10-16T05:25:15;59.22;;;31.55;;
64498;SDS011;51087;55.718;21.122;2022-10-16T05:27:41;53.10;;;30.27;;
64498;SDS011;51087;55.718;21.122;2022-10-16T05:30:07;53.05;;;31.40;;
64498;SDS011;51087;55.718;21.122;2022-10-16T05:32:32;55.38;;;29.50;;
64498;SDS011;51087;55.718;21.122;2022-10-16T05:34:58;57.50;;;30.92;;
64498;SDS011;51087;55.718;21.122;2022-10-16T05:37:25;53.08;;;29.75;;
64498;SDS011;51087;55.718;21.122;2022-10-16T05:39:52;52.90;;;29.55;;
64498;SDS011;51087;55.718;21.122;2022-10-16T05:42:17;61.08;;;31.38;;
64498;SDS011;51087;55.718;21.122;2022-10-16T05:44:43;54.08;;;31.10;;
64498;SDS011;51087;55.718;21.122;2022-10-16T05:47:08;59.38;;;31.20;;
64498;SDS011;51087;55.718;21.122;2022-10-16T05:49:35;53.50;;;31.25;;
64498;SDS011;51087;55.718;21.122;2022-10-16T05:52:01;58.28;;;30.92;;
64498;SDS011;51087;55.718;21.122;2022-10-16T05:54:26;62.50;;;36.25;;
64498;SDS011;51087;55.718;21.122;2022-10-16T05:56:52;63.63;;;31.65;;
64498;SDS011;51087;55.718;21.122;2022-10-16T05:59:17;54.97;;;32.03;;
64498;SDS011;51087;55.718;21.122;2022-10-16T06:01:42;56.15;;;31.20;;
64498;SDS011;51087;55.718;21.122;2022-10-16T06:04:08;50.58;;;29.95;;
64498;SDS011;51087;55.718;21.122;2022-10-16T06:06:34;61.42;;;32.30;;
64498;SDS011;51087;55.718;21.122;2022-10-16T06:09:01;55.58;;;30.60;;
64498;SDS011;51087;55.718;21.122;2022-10-16T06:11:28;59.05;;;30.58;;
64498;SDS011;51087;55.718;21.122;2022-10-16T06:13:56;55.78;;;30.85;;
64498;SDS011;51087;55.718;21.122;2022-10-16T06:16:23;58.55;;;31.67;;
64498;SDS011;51087;55.718;21.122;2022-10-16T06:18:52;52.30;;;29.52;;
64498;SDS011;51087;55.718;21.122;2022-10-16T06:21:19;49.03;;;28.98;;
64498;SDS011;51087;55.718;21.122;2022-10-16T06:23:46;64.88;;;29.92;;
64498;SDS011;51087;55.718;21.122;2022-10-16T06:26:13;53.03;;;30.13;;
64498;SDS011;51087;55.718;21.122;2022-10-16T06:28:40;57.83;;;30.65;;
64498;SDS011;51087;55.718;21.122;2022-10-16T06:31:06;58.85;;;29.95;;
64498;SDS011;51087;55.718;21.122;2022-10-16T06:33:33;57.90;;;30.75;;
64498;SDS011;51087;55.718;21.122;2022-10-16T06:36:00;51.47;;;28.45;;
64498;SDS011;51087;55.718;21.122;2022-10-16T06:38:33;48.22;;;28.20;;
64498;SDS011;51087;55.718;21.122;2022-10-16T06:40:59;48.40;;;28.70;;
64498;SDS011;51087;55.718;21.122;2022-10-16T06:43:24;49.05;;;28.50;;
64498;SDS011;51087;55.718;21.122;2022-10-16T06:45:53;50.70;;;27.80;;
64498;SDS011;51087;55.718;21.122;2022-10-16T06:48:19;52.00;;;27.65;;
64498;SDS011;51087;55.718;21.122;2022-10-16T06:50:58;50.65;;;27.02;;
64498;SDS011;51087;55.718;21.122;2022-10-16T06:53:25;48.15;;;27.88;;
64498;SDS011;51087;55.718;21.122;2022-10-16T06:55:52;51.35;;;28.27;;
64498;SDS011;51087;55.718;21.122;2022-10-16T06:58:17;55.50;;;27.90;;
64498;SDS011;51087;55.718;21.122;2022-10-16T07:00:43;48.50;;;27.70;;
64498;SDS011;51087;55.718;21.122;2022-10-16T07:03:09;53.15;;;28.27;;
64498;SDS011;51087;55.718;21.122;2022-10-16T07:05:38;56.30;;;28.40;;
64498;SDS011;51087;55.718;21.122;2022-10-16T07:08:04;45.95;;;25.65;;
64498;SDS011;51087;55.718;21.122;2022-10-16T07:10:30;47.17;;;26.90;;
64498;SDS011;51087;55.718;21.122;2022-10-16T07:12:56;47.58;;;27.35;;
64498;SDS011;51087;55.718;21.122;2022-10-16T07:15:22;51.83;;;28.40;;
64498;SDS011;51087;55.718;21.122;2022-10-16T07:17:47;46.45;;;27.55;;
64498;SDS011;51087;55.718;21.122;2022-10-16T07:20:13;46.42;;;28.27;;
64498;SDS011;51087;55.718;21.122;2022-10-16T07:22:38;49.70;;;28.02;;
64498;SDS011;51087;55.718;21.122;2022-10-16T07:25:04;49.60;;;28.63;;
64498;SDS011;51087;55.718;21.122;2022-10-16T07:27:30;56.58;;;28.98;;
64498;SDS011;51087;55.718;21.122;2022-10-16T07:29:55;49.05;;;29.05;;
64498;SDS011;51087;55.718;21.122;2022-10-16T07:32:20;50.10;;;28.67;;
64498;SDS011;51087;55.718;21.122;2022-10-16T07:34:46;49.25;;;27.13;;
64498;SDS011;51087;55.718;21.122;2022-10-16T07:37:11;47.50;;;27.83;;
64498;SDS011;51087;55.718;21.122;2022-10-16T07:39:37;49.88;;;28.77;;
64498;SDS011;51087;55.718;21.122;2022-10-16T07:42:02;51.70;;;25.38;;
64498;SDS011;51087;55.718;21.122;2022-10-16T07:44:28;51.35;;;26.02;;
64498;SDS011;51087;55.718;21.122;2022-10-16T07:46:53;57.00;;;28.92;;
64498;SDS011;51087;55.718;21.122;2022-10-16T07:49:18;54.58;;;28.50;;
64498;SDS011;51087;55.718;21.122;2022-10-16T07:51:44;48.38;;;27.55;;
64498;SDS011;51087;55.718;21.122;2022-10-16T07:54:09;51.97;;;28.27;;
64498;SDS011;51087;55.718;21.122;2022-10-16T07:56:35;50.30;;;28.08;;
64498;SDS011;51087;55.718;21.122;2022-10-16T07:59:00;48.33;;;28.08;;
64498;SDS011;51087;55.718;21.122;2022-10-16T08:01:26;51.15;;;28.75;;
64498;SDS011;51087;55.718;21.122;2022-10-16T08:03:52;54.33;;;28.10;;
64498;SDS011;51087;55.718;21.122;2022-10-16T08:06:18;49.28;;;28.08;;
64498;SDS011;51087;55.718;21.122;2022-10-16T08:08:45;45.45;;;25.23;;
64498;SDS011;51087;55.718;21.122;2022-10-16T08:11:10;53.53;;;29.63;;
64498;SDS011;51087;55.718;21.122;2022-10-16T08:13:36;50.70;;;28.88;;
64498;SDS011;51087;55.718;21.122;2022-10-16T08:16:02;48.88;;;27.45;;
64498;SDS011;51087;55.718;21.122;2022-10-16T08:18:32;53.38;;;28.20;;
64498;SDS011;51087;55.718;21.122;2022-10-16T08:20:59;50.20;;;27.98;;
64498;SDS011;51087;55.718;21.122;2022-10-16T08:23:25;49.08;;;25.20;;
64498;SDS011;51087;55.718;21.122;2022-10-16T08:25:52;49.90;;;26.88;;
64498;SDS011;51087;55.718;21.122;2022-10-16T08:28:19;48.10;;;28.15;;
64498;SDS011;51087;55.718;21.122;2022-10-16T08:30:44;45.75;;;24.52;;
64498;SDS011;51087;55.718;21.122;2022-10-16T08:33:10;54.28;;;29.08;;
64498;SDS011;51087;55.718;21.122;2022-10-16T08:35:36;50.60;;;28.42;;
64498;SDS011;51087;55.718;21.122;2022-10-16T08:38:04;47.30;;;27.50;;
64498;SDS011;51087;55.718;21.122;2022-10-16T08:40:31;48.88;;;27.65;;
64498;SDS011;51087;55.718;21.122;2022-10-16T08:50:55;46.05;;;27.02;;
64498;SDS011;51087;55.718;21.122;2022-10-16T08:53:26;50.78;;;27.90;;
64498;SDS011;51087;55.718;21.122;2022-10-16T08:55:55;51.25;;;27.35;;
64498;SDS011;51087;55.718;21.122;2022-10-16T08:58:22;47.20;;;26.88;;
64498;SDS011;51087;55.718;21.122;2022-10-16T09:00:55;49.17;;;28.85;;
64498;SDS011;51087;55.718;21.122;2022-10-16T09:06:16;46.60;;;27.13;;
64498;SDS011;51087;55.718;21.122;2022-10-16T09:14:18;48.55;;;25.83;;
64498;SDS011;51087;55.718;21.122;2022-10-16T09:17:12;43.70;;;26.05;;
64498;SDS011;51087;55.718;21.122;2022-10-16T09:22:35;44.90;;;26.23;;
64498;SDS011;51087;55.718;21.122;2022-10-16T09:25:04;39.70;;;25.52;;
64498;SDS011;51087;55.718;21.122;2022-10-16T09:27:37;40.03;;;24.75;;
64498;SDS011;51087;55.718;21.122;2022-10-16T09:30:13;47.05;;;24.38;;
64498;SDS011;51087;55.718;21.122;2022-10-16T09:32:44;44.05;;;23.80;;
64498;SDS011;51087;55.718;21.122;2022-10-16T09:35:14;46.40;;;25.40;;
64498;SDS011;51087;55.718;21.122;2022-10-16T09:37:43;41.25;;;24.42;;
64498;SDS011;51087;55.718;21.122;2022-10-16T09:40:32;37.75;;;22.85;;
64498;SDS011;51087;55.718;21.122;2022-10-16T09:43:07;44.75;;;23.88;;
64498;SDS011;51087;55.718;21.122;2022-10-16T09:45:56;39.05;;;22.60;;
64498;SDS011;51087;55.718;21.122;2022-10-16T09:52:02;38.22;;;23.75;;
64498;SDS011;51087;55.718;21.122;2022-10-16T09:56:34;37.70;;;23.58;;
64498;SDS011;51087;55.718;21.122;2022-10-16T09:59:20;36.00;;;24.08;;
64498;SDS011;51087;55.718;21.122;2022-10-16T10:01:52;39.30;;;25.05;;
64498;SDS011;51087;55.718;21.122;2022-10-16T10:04:20;39.65;;;23.33;;
64498;SDS011;51087;55.718;21.122;2022-10-16T10:06:53;38.88;;;24.15;;
64498;SDS011;51087;55.718;21.122;2022-10-16T10:09:22;37.63;;;24.30;;
64498;SDS011;51087;55.718;21.122;2022-10-16T10:12:04;37.88;;;24.67;;
64498;SDS011;51087;55.718;21.122;2022-10-16T10:14:32;37.42;;;24.77;;
64498;SDS011;51087;55.718;21.122;2022-10-16T10:17:11;37.55;;;23.13;;
64498;SDS011;51087;55.718;21.122;2022-10-16T10:19:58;38.38;;;23.10;;
64498;SDS011;51087;55.718;21.122;2022-10-16T10:30:22;35.72;;;21.95;;
64498;SDS011;51087;55.718;21.122;2022-10-16T10:46:39;29.15;;;18.73;;
64498;SDS011;51087;55.718;21.122;2022-10-16T10:52:13;29.98;;;19.77;;
64498;SDS011;51087;55.718;21.122;2022-10-16T10:55:09;30.02;;;18.13;;
64498;SDS011;51087;55.718;21.122;2022-10-16T11:00:43;26.35;;;16.85;;
64498;SDS011;51087;55.718;21.122;2022-10-16T11:06:07;32.55;;;19.65;;
64498;SDS011;51087;55.718;21.122;2022-10-16T11:11:13;30.35;;;18.45;;
64498;SDS011;51087;55.718;21.122;2022-10-16T11:19:03;25.60;;;17.75;;
64498;SDS011;51087;55.718;21.122;2022-10-16T11:21:35;29.85;;;17.75;;
64498;SDS011;51087;55.718;21.122;2022-10-16T11:24:19;29.70;;;17.08;;
64498;SDS011;51087;55.718;21.122;2022-10-16T11:26:48;31.05;;;19.45;;
64498;SDS011;51087;55.718;21.122;2022-10-16T11:29:29;31.30;;;19.30;;
64498;SDS011;51087;55.718;21.122;2022-10-16T11:31:57;33.20;;;20.25;;
64498;SDS011;51087;55.718;21.122;2022-10-16T11:37:19;32.50;;;19.90;;
64498;SDS011;51087;55.718;21.122;2022-10-16T11:39:48;32.45;;;20.30;;
64498;SDS011;51087;55.718;21.122;2022-10-16T11:42:37;36.85;;;21.48;;
64498;SDS011;51087;55.718;21.122;2022-10-16T11:47:36;36.20;;;22.05;;
64498;SDS011;51087;55.718;21.122;2022-10-16T11:53:10;39.30;;;21.75;;
64498;SDS011;51087;55.718;21.122;2022-10-16T11:55:46;37.50;;;22.85;;
64498;SDS011;51087;55.718;21.122;2022-10-16T12:00:47;38.72;;;21.67;;
64498;SDS011;51087;55.718;21.122;2022-10-16T12:08:27;46.60;;;25.58;;
64498;SDS011;51087;55.718;21.122;2022-10-16T12:10:53;47.78;;;26.15;;
64498;SDS011;51087;55.718;21.122;2022-10-16T12:13:35;38.10;;;20.13;;
64498;SDS011;51087;55.718;21.122;2022-10-16T12:18:37;44.00;;;22.63;;
64498;SDS011;51087;55.718;21.122;2022-10-16T12:21:08;46.45;;;26.00;;
64498;SDS011;51087;55.718;21.122;2022-10-16T12:23:38;45.38;;;25.10;;
64498;SDS011;51087;55.718;21.122;2022-10-16T12:26:12;45.05;;;23.95;;
64498;SDS011;51087;55.718;21.122;2022-10-16T12:28:37;48.40;;;24.80;;
64498;SDS011;51087;55.718;21.122;2022-10-16T12:31:07;47.10;;;26.27;;
64498;SDS011;51087;55.718;21.122;2022-10-16T12:36:02;49.20;;;25.40;;
64498;SDS011;51087;55.718;21.122;2022-10-16T12:38:38;51.72;;;26.65;;
64498;SDS011;51087;55.718;21.122;2022-10-16T12:41:12;45.10;;;23.80;;
64498;SDS011;51087;55.718;21.122;2022-10-16T12:48:37;49.05;;;26.08;;
64498;SDS011;51087;55.718;21.122;2022-10-16T13:11:08;53.03;;;26.25;;
64498;SDS011;51087;55.718;21.122;2022-10-16T13:22:29;47.13;;;25.25;;
64498;SDS011;51087;55.718;21.122;2022-10-16T13:28:10;57.60;;;28.00;;
64498;SDS011;51087;55.718;21.122;2022-10-16T13:30:41;50.35;;;24.55;;
64498;SDS011;51087;55.718;21.122;2022-10-16T13:36:01;48.85;;;26.05;;
64498;SDS011;51087;55.718;21.122;2022-10-16T13:38:29;45.75;;;24.33;;
64498;SDS011;51087;55.718;21.122;2022-10-16T13:41:00;50.85;;;24.77;;
64498;SDS011;51087;55.718;21.122;2022-10-16T13:43:49;54.50;;;27.23;;
64498;SDS011;51087;55.718;21.122;2022-10-16T13:46:21;43.85;;;21.85;;
64498;SDS011;51087;55.718;21.122;2022-10-16T13:48:57;53.83;;;26.90;;
64498;SDS011;51087;55.718;21.122;2022-10-16T13:51:27;45.25;;;24.45;;
64498;SDS011;51087;55.718;21.122;2022-10-16T13:53:57;48.88;;;24.60;;
64498;SDS011;51087;55.718;21.122;2022-10-16T13:56:25;51.30;;;25.63;;
64498;SDS011;51087;55.718;21.122;2022-10-16T13:59:05;45.20;;;23.60;;
64498;SDS011;51087;55.718;21.122;2022-10-16T14:01:46;46.78;;;24.42;;
64498;SDS011;51087;55.718;21.122;2022-10-16T14:04:12;51.92;;;26.27;;
64498;SDS011;51087;55.718;21.122;2022-10-16T14:06:45;47.70;;;24.33;;
64498;SDS011;51087;55.718;21.122;2022-10-16T14:09:24;47.63;;;24.25;;
64498;SDS011;51087;55.718;21.122;2022-10-16T14:11:55;48.80;;;24.60;;
64498;SDS011;51087;55.718;21.122;2022-10-16T14:14:22;49.42;;;26.38;;
64498;SDS011;51087;55.718;21.122;2022-10-16T14:16:48;46.28;;;26.23;;
64498;SDS011;51087;55.718;21.122;2022-10-16T14:19:27;45.83;;;25.98;;
64498;SDS011;51087;55.718;21.122;2022-10-16T14:21:54;47.75;;;24.00;;
64498;SDS011;51087;55.718;21.122;2022-10-16T14:24:25;51.65;;;24.85;;
64498;SDS011;51087;55.718;21.122;2022-10-16T14:26:52;50.10;;;24.10;;
64498;SDS011;51087;55.718;21.122;2022-10-16T14:29:21;53.42;;;27.23;;
64498;SDS011;51087;55.718;21.122;2022-10-16T14:31:54;48.85;;;25.77;;
64498;SDS011;51087;55.718;21.122;2022-10-16T14:36:53;47.20;;;24.80;;
64498;SDS011;51087;55.718;21.122;2022-10-16T14:39:20;52.75;;;24.75;;
64498;SDS011;51087;55.718;21.122;2022-10-16T14:41:48;48.97;;;25.80;;
64498;SDS011;51087;55.718;21.122;2022-10-16T14:44:15;46.75;;;24.60;;
64498;SDS011;51087;55.718;21.122;2022-10-16T14:46:43;46.38;;;25.60;;
64498;SDS011;51087;55.718;21.122;2022-10-16T14:51:35;46.42;;;25.40;;
64498;SDS011;51087;55.718;21.122;2022-10-16T14:54:02;50.70;;;25.88;;
64498;SDS011;51087;55.718;21.122;2022-10-16T14:56:34;48.60;;;25.40;;
64498;SDS011;51087;55.718;21.122;2022-10-16T14:59:10;49.63;;;24.40;;
64498;SDS011;51087;55.718;21.122;2022-10-16T15:01:42;47.67;;;24.10;;
64498;SDS011;51087;55.718;21.122;2022-10-16T15:04:09;48.85;;;25.98;;
64498;SDS011;51087;55.718;21.122;2022-10-16T15:06:36;48.05;;;24.58;;
64498;SDS011;51087;55.718;21.122;2022-10-16T15:09:02;49.42;;;26.63;;
64498;SDS011;51087;55.718;21.122;2022-10-16T15:11:28;48.58;;;24.85;;
64498;SDS011;51087;55.718;21.122;2022-10-16T15:13:56;54.08;;;25.42;;
64498;SDS011;51087;55.718;21.122;2022-10-16T15:16:21;47.83;;;25.35;;
64498;SDS011;51087;55.718;21.122;2022-10-16T15:18:47;41.25;;;21.42;;
64498;SDS011;51087;55.718;21.122;2022-10-16T15:21:33;49.95;;;26.35;;
64498;SDS011;51087;55.718;21.122;2022-10-16T15:23:58;55.65;;;26.33;;
64498;SDS011;51087;55.718;21.122;2022-10-16T15:26:25;46.00;;;25.60;;
64498;SDS011;51087;55.718;21.122;2022-10-16T15:28:52;53.63;;;27.02;;
64498;SDS011;51087;55.718;21.122;2022-10-16T15:31:18;46.72;;;25.42;;
64498;SDS011;51087;55.718;21.122;2022-10-16T15:33:44;50.83;;;27.15;;
64498;SDS011;51087;55.718;21.122;2022-10-16T15:36:12;49.28;;;26.92;;
64498;SDS011;51087;55.718;21.122;2022-10-16T15:38:38;54.80;;;26.60;;
64498;SDS011;51087;55.718;21.122;2022-10-16T15:41:04;47.38;;;24.77;;
64498;SDS011;51087;55.718;21.122;2022-10-16T15:43:29;49.50;;;23.95;;
64498;SDS011;51087;55.718;21.122;2022-10-16T15:46:02;53.25;;;26.77;;
64498;SDS011;51087;55.718;21.122;2022-10-16T15:48:33;51.63;;;25.30;;
64498;SDS011;51087;55.718;21.122;2022-10-16T15:51:06;49.25;;;25.27;;
64498;SDS011;51087;55.718;21.122;2022-10-16T15:53:32;46.70;;;25.52;;
64498;SDS011;51087;55.718;21.122;2022-10-16T15:56:09;48.35;;;23.17;;
64498;SDS011;51087;55.718;21.122;2022-10-16T15:58:35;45.97;;;24.05;;
64498;SDS011;51087;55.718;21.122;2022-10-16T16:01:01;49.05;;;25.95;;
64498;SDS011;51087;55.718;21.122;2022-10-16T16:03:28;50.60;;;23.95;;
64498;SDS011;51087;55.718;21.122;2022-10-16T16:05:54;49.65;;;26.23;;
64498;SDS011;51087;55.718;21.122;2022-10-16T16:08:20;53.30;;;27.45;;
64498;SDS011;51087;55.718;21.122;2022-10-16T16:10:45;48.13;;;27.83;;
64498;SDS011;51087;55.718;21.122;2022-10-16T16:13:22;45.83;;;24.40;;
64498;SDS011;51087;55.718;21.122;2022-10-16T16:15:47;60.10;;;29.75;;
64498;SDS011;51087;55.718;21.122;2022-10-16T16:18:13;82.60;;;46.60;;
64498;SDS011;51087;55.718;21.122;2022-10-16T16:20:38;54.60;;;27.98;;
64498;SDS011;51087;55.718;21.122;2022-10-16T16:23:04;57.15;;;32.05;;
64498;SDS011;51087;55.718;21.122;2022-10-16T16:25:29;47.45;;;24.02;;
64498;SDS011;51087;55.718;21.122;2022-10-16T16:27:55;56.92;;;29.98;;
64498;SDS011;51087;55.718;21.122;2022-10-16T16:30:21;48.03;;;25.60;;
64498;SDS011;51087;55.718;21.122;2022-10-16T16:32:46;43.85;;;24.45;;
64498;SDS011;51087;55.718;21.122;2022-10-16T16:35:12;52.38;;;25.60;;
64498;SDS011;51087;55.718;21.122;2022-10-16T16:37:37;50.35;;;26.65;;
64498;SDS011;51087;55.718;21.122;2022-10-16T16:40:02;61.80;;;31.00;;
64498;SDS011;51087;55.718;21.122;2022-10-16T16:42:28;44.53;;;25.73;;